Aeroporto :
LOGIN :

Iscrizione | Disclaimer

   EN    FR    IT 

 










Sommario :    VFR   VFR Marginale   IFR   IFR Intensivo   IFR Molto Intensivo
Visibilità : 
Base nubi : 
>= 8 km
>= 3000ft
5 / 8 km
1000 / 3000 ft
1500m / 5 km
500 / 1000 ft
800 / 1500m
200 / 500 ft
< 800m
< 200 ft
Simboli :   Temporali  Nebbia  Neve Forte  Precipitazioni Forti  Vento > 20 kt
SIGMETs :   Varie  Temporali  Ghiacco  Turbolenza  Onda orograficha  Ceneri Vulcaniche






- Altitudine del aeroporto : 2776 ft
- Codice IATA : VLL


LEVD - Valladolid

ULTIMO METAR :
  • 201900Z 19006KT 160V220 9999 SCT012 BKN020 BKN040 06/05 Q1006

METARs OBSOLETI :
  • 201830Z 19006KT 170V230 9999 FEW015 SCT025 OVC030 06/05 Q1006
  • 201800Z 19007KT 9999 FEW015 SCT020 OVC028 06/05 Q1006
  • 201730Z 19008KT 9999 FEW005 BKN017 OVC028 06/05 Q1006
  • 201700Z 19006KT 9999 SCT005 BKN015 OVC028 06/05 Q1006
  • 201630Z 21006KT 170V230 9999 SCT007 BKN013 BKN024 06/05 Q1006

TAF TAF LEVD
Valido dal 20 a 18 ore il 21 a 18 ore UTC


201700Z 2018/2118 20007KT 9999 BKN012 BKN025 TX09/2114Z TN03/2106Z
PROB30
TEMPO 2018/2021 RA BKN006
PROB30
TEMPO 2106/2108 BKN008
PROB30
TEMPO 2104/2118 RA



MetMap, La meteo Aeronautica in un colpo d'occhio ! - Copyright ORBIFLY Dicembre 2007 - Disclaimer

ORBIFLY MET'MAP TEAM :

Programmazione e sviluppo : Alexandra Zaïnal
Concezione e sviluppo : Baudouin d'Aumeries
Co-Programmazione e sviluppo : Marc-Olivier Méhu
Supporto tecnico e logistico : Manuel Goepfert
Aiuto per la traduzione : Arnaldo La Scala

Contatto : metmap@orbifly.com




FONTI E CREDITI :

   NOAA